sensor_id;sensor_type;location;lat;lon;timestamp;temperature;humidity
35305;DHT22;26433;48.034;-1.764;2023-06-14T00:00:06;20.10;69.20
35305;DHT22;26433;48.034;-1.764;2023-06-14T00:05:10;20.10;69.40
35305;DHT22;26433;48.034;-1.764;2023-06-14T00:10:16;20.00;69.50
35305;DHT22;26433;48.034;-1.764;2023-06-14T00:15:20;20.00;69.80
35305;DHT22;26433;48.034;-1.764;2023-06-14T00:20:26;19.90;69.90
35305;DHT22;26433;48.034;-1.764;2023-06-14T00:25:32;19.90;70.40
35305;DHT22;26433;48.034;-1.764;2023-06-14T00:30:36;19.80;70.60
35305;DHT22;26433;48.034;-1.764;2023-06-14T00:40:45;19.70;70.40
35305;DHT22;26433;48.034;-1.764;2023-06-14T00:45:48;19.70;71.20
35305;DHT22;26433;48.034;-1.764;2023-06-14T00:50:54;19.60;71.50
35305;DHT22;26433;48.034;-1.764;2023-06-14T00:55:59;19.50;71.70
35305;DHT22;26433;48.034;-1.764;2023-06-14T01:01:03;19.50;71.90
35305;DHT22;26433;48.034;-1.764;2023-06-14T01:06:16;19.50;72.30
35305;DHT22;26433;48.034;-1.764;2023-06-14T01:11:38;19.40;72.50
35305;DHT22;26433;48.034;-1.764;2023-06-14T01:16:44;19.40;72.70
35305;DHT22;26433;48.034;-1.764;2023-06-14T01:21:48;19.40;73.10
35305;DHT22;26433;48.034;-1.764;2023-06-14T01:26:55;19.30;73.40
35305;DHT22;26433;48.034;-1.764;2023-06-14T01:32:02;19.30;73.80
35305;DHT22;26433;48.034;-1.764;2023-06-14T01:37:08;19.20;74.10
35305;DHT22;26433;48.034;-1.764;2023-06-14T01:42:14;19.20;74.50
35305;DHT22;26433;48.034;-1.764;2023-06-14T01:47:18;19.20;74.70
35305;DHT22;26433;48.034;-1.764;2023-06-14T01:52:23;19.10;74.90
35305;DHT22;26433;48.034;-1.764;2023-06-14T01:57:28;19.10;75.20
35305;DHT22;26433;48.034;-1.764;2023-06-14T02:02:33;20.50;76.30
35305;DHT22;26433;48.034;-1.764;2023-06-14T02:07:38;19.10;75.80
35305;DHT22;26433;48.034;-1.764;2023-06-14T02:12:43;19.00;75.90
35305;DHT22;26433;48.034;-1.764;2023-06-14T02:17:46;19.00;76.30
35305;DHT22;26433;48.034;-1.764;2023-06-14T02:22:51;18.90;76.70
35305;DHT22;26433;48.034;-1.764;2023-06-14T02:27:56;18.90;77.10
35305;DHT22;26433;48.034;-1.764;2023-06-14T02:33:00;18.90;77.40
35305;DHT22;26433;48.034;-1.764;2023-06-14T02:38:04;18.90;77.60
35305;DHT22;26433;48.034;-1.764;2023-06-14T02:43:09;18.80;77.80
35305;DHT22;26433;48.034;-1.764;2023-06-14T02:48:13;18.80;78.20
35305;DHT22;26433;48.034;-1.764;2023-06-14T02:53:17;18.70;78.60
35305;DHT22;26433;48.034;-1.764;2023-06-14T02:58:22;18.70;79.00
35305;DHT22;26433;48.034;-1.764;2023-06-14T03:03:27;18.60;79.20
35305;DHT22;26433;48.034;-1.764;2023-06-14T03:08:31;18.60;79.50
35305;DHT22;26433;48.034;-1.764;2023-06-14T03:13:43;18.60;79.80
35305;DHT22;26433;48.034;-1.764;2023-06-14T03:18:48;18.60;80.10
35305;DHT22;26433;48.034;-1.764;2023-06-14T03:23:53;18.60;80.30
35305;DHT22;26433;48.034;-1.764;2023-06-14T03:28:58;18.60;80.70
35305;DHT22;26433;48.034;-1.764;2023-06-14T03:34:02;18.50;81.00
35305;DHT22;26433;48.034;-1.764;2023-06-14T03:39:06;18.50;81.30
35305;DHT22;26433;48.034;-1.764;2023-06-14T03:44:14;18.40;81.50
35305;DHT22;26433;48.034;-1.764;2023-06-14T03:49:18;18.40;81.70
35305;DHT22;26433;48.034;-1.764;2023-06-14T03:54:21;18.40;82.00
35305;DHT22;26433;48.034;-1.764;2023-06-14T03:59:47;18.40;82.20
35305;DHT22;26433;48.034;-1.764;2023-06-14T04:04:51;18.40;82.40
35305;DHT22;26433;48.034;-1.764;2023-06-14T04:09:57;18.40;82.70
35305;DHT22;26433;48.034;-1.764;2023-06-14T04:15:03;18.40;82.60
35305;DHT22;26433;48.034;-1.764;2023-06-14T04:20:22;18.30;83.10
35305;DHT22;26433;48.034;-1.764;2023-06-14T04:25:26;18.30;83.30
35305;DHT22;26433;48.034;-1.764;2023-06-14T04:30:32;18.30;83.60
35305;DHT22;26433;48.034;-1.764;2023-06-14T04:35:38;18.30;83.40
35305;DHT22;26433;48.034;-1.764;2023-06-14T04:40:43;18.30;83.30
35305;DHT22;26433;48.034;-1.764;2023-06-14T04:45:50;18.30;83.60
35305;DHT22;26433;48.034;-1.764;2023-06-14T04:50:54;18.30;84.00
35305;DHT22;26433;48.034;-1.764;2023-06-14T04:55:58;18.40;84.50
35305;DHT22;26433;48.034;-1.764;2023-06-14T05:01:05;18.30;84.00
35305;DHT22;26433;48.034;-1.764;2023-06-14T05:06:12;18.30;84.50
35305;DHT22;26433;48.034;-1.764;2023-06-14T05:11:16;18.30;85.10
35305;DHT22;26433;48.034;-1.764;2023-06-14T05:16:22;18.30;85.60
35305;DHT22;26433;48.034;-1.764;2023-06-14T05:21:28;18.30;85.70
35305;DHT22;26433;48.034;-1.764;2023-06-14T05:31:37;18.30;85.10
35305;DHT22;26433;48.034;-1.764;2023-06-14T05:36:41;18.40;86.10
35305;DHT22;26433;48.034;-1.764;2023-06-14T05:41:44;18.40;86.20
35305;DHT22;26433;48.034;-1.764;2023-06-14T05:46:52;18.50;86.30
35305;DHT22;26433;48.034;-1.764;2023-06-14T05:51:56;18.60;86.20
35305;DHT22;26433;48.034;-1.764;2023-06-14T05:57:00;18.70;85.80
35305;DHT22;26433;48.034;-1.764;2023-06-14T06:02:07;18.80;86.10
35305;DHT22;26433;48.034;-1.764;2023-06-14T06:07:10;18.90;86.00
35305;DHT22;26433;48.034;-1.764;2023-06-14T06:12:14;18.90;86.00
35305;DHT22;26433;48.034;-1.764;2023-06-14T06:17:19;19.00;86.00
35305;DHT22;26433;48.034;-1.764;2023-06-14T06:22:23;19.20;85.70
35305;DHT22;26433;48.034;-1.764;2023-06-14T06:27:27;19.30;85.50
35305;DHT22;26433;48.034;-1.764;2023-06-14T06:32:32;19.50;85.30
35305;DHT22;26433;48.034;-1.764;2023-06-14T06:37:35;19.60;84.90
35305;DHT22;26433;48.034;-1.764;2023-06-14T06:42:39;19.70;84.50
35305;DHT22;26433;48.034;-1.764;2023-06-14T06:47:47;20.00;84.00
35305;DHT22;26433;48.034;-1.764;2023-06-14T06:52:51;20.10;83.60
35305;DHT22;26433;48.034;-1.764;2023-06-14T06:57:55;20.30;83.30
35305;DHT22;26433;48.034;-1.764;2023-06-14T07:03:00;20.50;83.00
35305;DHT22;26433;48.034;-1.764;2023-06-14T07:08:06;20.70;82.50
35305;DHT22;26433;48.034;-1.764;2023-06-14T07:13:10;20.70;82.40
35305;DHT22;26433;48.034;-1.764;2023-06-14T07:18:15;20.90;82.20
35305;DHT22;26433;48.034;-1.764;2023-06-14T07:23:19;21.10;81.70
35305;DHT22;26433;48.034;-1.764;2023-06-14T07:28:22;21.30;81.20
35305;DHT22;26433;48.034;-1.764;2023-06-14T07:33:28;21.40;80.80
35305;DHT22;26433;48.034;-1.764;2023-06-14T07:38:32;21.50;80.60
35305;DHT22;26433;48.034;-1.764;2023-06-14T07:43:35;21.70;80.60
35305;DHT22;26433;48.034;-1.764;2023-06-14T07:48:40;21.80;80.40
35305;DHT22;26433;48.034;-1.764;2023-06-14T07:53:44;21.90;80.20
35305;DHT22;26433;48.034;-1.764;2023-06-14T07:58:48;21.90;80.20
35305;DHT22;26433;48.034;-1.764;2023-06-14T08:03:53;22.10;79.80
35305;DHT22;26433;48.034;-1.764;2023-06-14T08:08:57;22.30;79.30
35305;DHT22;26433;48.034;-1.764;2023-06-14T08:14:01;22.40;78.70
35305;DHT22;26433;48.034;-1.764;2023-06-14T08:19:06;22.60;78.80
35305;DHT22;26433;48.034;-1.764;2023-06-14T08:24:11;22.90;78.00
35305;DHT22;26433;48.034;-1.764;2023-06-14T08:29:15;23.10;76.90
35305;DHT22;26433;48.034;-1.764;2023-06-14T08:34:20;23.50;75.90
35305;DHT22;26433;48.034;-1.764;2023-06-14T08:39:25;23.80;75.00
35305;DHT22;26433;48.034;-1.764;2023-06-14T08:44:29;24.20;74.20
35305;DHT22;26433;48.034;-1.764;2023-06-14T08:49:36;24.70;73.10
35305;DHT22;26433;48.034;-1.764;2023-06-14T08:54:42;25.50;71.10
35305;DHT22;26433;48.034;-1.764;2023-06-14T08:59:47;26.30;68.90
35305;DHT22;26433;48.034;-1.764;2023-06-14T09:04:56;27.30;66.90
35305;DHT22;26433;48.034;-1.764;2023-06-14T09:10:07;28.30;65.00
35305;DHT22;26433;48.034;-1.764;2023-06-14T09:15:12;29.00;63.30
35305;DHT22;26433;48.034;-1.764;2023-06-14T09:20:18;29.50;62.70
35305;DHT22;26433;48.034;-1.764;2023-06-14T09:25:22;30.20;61.50
35305;DHT22;26433;48.034;-1.764;2023-06-14T09:30:41;30.90;60.50
35305;DHT22;26433;48.034;-1.764;2023-06-14T09:35:51;31.60;59.10
35305;DHT22;26433;48.034;-1.764;2023-06-14T09:40:56;32.20;58.00
35305;DHT22;26433;48.034;-1.764;2023-06-14T09:46:00;32.80;57.40
35305;DHT22;26433;48.034;-1.764;2023-06-14T09:51:06;33.30;56.70
35305;DHT22;26433;48.034;-1.764;2023-06-14T09:56:10;33.60;55.90
35305;DHT22;26433;48.034;-1.764;2023-06-14T10:01:15;33.90;55.70
35305;DHT22;26433;48.034;-1.764;2023-06-14T10:06:23;34.40;54.90
35305;DHT22;26433;48.034;-1.764;2023-06-14T10:11:27;34.80;54.10
35305;DHT22;26433;48.034;-1.764;2023-06-14T10:16:34;34.80;53.90
35305;DHT22;26433;48.034;-1.764;2023-06-14T10:21:47;34.80;53.60
35305;DHT22;26433;48.034;-1.764;2023-06-14T10:26:57;34.90;53.20
35305;DHT22;26433;48.034;-1.764;2023-06-14T10:32:02;35.40;52.60
35305;DHT22;26433;48.034;-1.764;2023-06-14T10:37:13;35.80;51.80
35305;DHT22;26433;48.034;-1.764;2023-06-14T10:42:18;36.20;51.10
35305;DHT22;26433;48.034;-1.764;2023-06-14T10:47:27;36.60;50.50
35305;DHT22;26433;48.034;-1.764;2023-06-14T10:52:37;36.60;50.20
35305;DHT22;26433;48.034;-1.764;2023-06-14T10:57:42;36.60;50.10
35305;DHT22;26433;48.034;-1.764;2023-06-14T11:08:47;37.30;48.80
35305;DHT22;26433;48.034;-1.764;2023-06-14T11:13:55;37.70;48.20
35305;DHT22;26433;48.034;-1.764;2023-06-14T11:19:00;37.70;48.30
35305;DHT22;26433;48.034;-1.764;2023-06-14T11:24:10;37.70;48.10
35305;DHT22;26433;48.034;-1.764;2023-06-14T11:29:15;38.40;47.40
35305;DHT22;26433;48.034;-1.764;2023-06-14T11:34:19;38.90;46.60
35305;DHT22;26433;48.034;-1.764;2023-06-14T11:39:25;39.20;46.70
35305;DHT22;26433;48.034;-1.764;2023-06-14T11:44:30;38.90;45.90
35305;DHT22;26433;48.034;-1.764;2023-06-14T11:49:36;38.50;46.30
35305;DHT22;26433;48.034;-1.764;2023-06-14T11:54:41;38.60;45.80
35305;DHT22;26433;48.034;-1.764;2023-06-14T11:59:45;38.50;45.80
35305;DHT22;26433;48.034;-1.764;2023-06-14T12:04:49;38.70;45.50
35305;DHT22;26433;48.034;-1.764;2023-06-14T12:10:08;38.80;45.10
35305;DHT22;26433;48.034;-1.764;2023-06-14T12:15:13;38.50;45.00
35305;DHT22;26433;48.034;-1.764;2023-06-14T12:20:18;38.90;44.50
35305;DHT22;26433;48.034;-1.764;2023-06-14T12:25:31;39.30;43.70
35305;DHT22;26433;48.034;-1.764;2023-06-14T12:30:36;39.50;43.50
35305;DHT22;26433;48.034;-1.764;2023-06-14T12:35:40;39.90;43.10
35305;DHT22;26433;48.034;-1.764;2023-06-14T12:40:45;39.50;43.20
35305;DHT22;26433;48.034;-1.764;2023-06-14T12:45:49;39.50;42.90
35305;DHT22;26433;48.034;-1.764;2023-06-14T12:50:53;39.40;42.70
35305;DHT22;26433;48.034;-1.764;2023-06-14T12:55:58;39.30;42.50
35305;DHT22;26433;48.034;-1.764;2023-06-14T13:01:02;39.30;42.10
35305;DHT22;26433;48.034;-1.764;2023-06-14T13:06:05;39.40;42.00
35305;DHT22;26433;48.034;-1.764;2023-06-14T13:11:10;39.50;41.60
35305;DHT22;26433;48.034;-1.764;2023-06-14T13:16:14;39.30;41.70
35305;DHT22;26433;48.034;-1.764;2023-06-14T13:21:18;39.30;41.40
35305;DHT22;26433;48.034;-1.764;2023-06-14T13:26:23;39.10;41.20
35305;DHT22;26433;48.034;-1.764;2023-06-14T13:31:27;38.60;41.10
35305;DHT22;26433;48.034;-1.764;2023-06-14T13:36:31;38.40;41.10
35305;DHT22;26433;48.034;-1.764;2023-06-14T13:41:36;38.30;41.10
35305;DHT22;26433;48.034;-1.764;2023-06-14T13:46:39;37.80;41.10
35305;DHT22;26433;48.034;-1.764;2023-06-14T13:51:44;37.30;41.40
35305;DHT22;26433;48.034;-1.764;2023-06-14T13:56:50;37.30;41.10
35305;DHT22;26433;48.034;-1.764;2023-06-14T14:01:53;37.20;40.90
35305;DHT22;26433;48.034;-1.764;2023-06-14T14:06:57;37.10;40.80
35305;DHT22;26433;48.034;-1.764;2023-06-14T14:12:03;36.80;40.90
35305;DHT22;26433;48.034;-1.764;2023-06-14T14:17:06;36.80;41.20
35305;DHT22;26433;48.034;-1.764;2023-06-14T14:22:10;36.50;41.20
35305;DHT22;26433;48.034;-1.764;2023-06-14T14:27:16;36.20;41.40
35305;DHT22;26433;48.034;-1.764;2023-06-14T14:32:19;36.00;41.40
35305;DHT22;26433;48.034;-1.764;2023-06-14T14:37:23;35.70;41.60
35305;DHT22;26433;48.034;-1.764;2023-06-14T14:42:28;35.60;41.30
35305;DHT22;26433;48.034;-1.764;2023-06-14T14:47:32;35.40;41.60
35305;DHT22;26433;48.034;-1.764;2023-06-14T14:52:36;35.20;41.50
35305;DHT22;26433;48.034;-1.764;2023-06-14T14:57:41;35.10;41.50
35305;DHT22;26433;48.034;-1.764;2023-06-14T15:02:45;34.70;41.70
35305;DHT22;26433;48.034;-1.764;2023-06-14T15:07:48;34.50;42.10
35305;DHT22;26433;48.034;-1.764;2023-06-14T15:12:53;34.30;42.00
35305;DHT22;26433;48.034;-1.764;2023-06-14T15:17:57;34.10;42.20
35305;DHT22;26433;48.034;-1.764;2023-06-14T15:23:01;33.90;42.60
35305;DHT22;26433;48.034;-1.764;2023-06-14T15:28:05;33.70;42.60
35305;DHT22;26433;48.034;-1.764;2023-06-14T15:33:11;33.50;42.50
35305;DHT22;26433;48.034;-1.764;2023-06-14T15:38:14;33.30;42.90
35305;DHT22;26433;48.034;-1.764;2023-06-14T15:43:19;33.00;43.60
35305;DHT22;26433;48.034;-1.764;2023-06-14T15:48:25;32.70;43.30
35305;DHT22;26433;48.034;-1.764;2023-06-14T15:53:29;32.50;43.60
35305;DHT22;26433;48.034;-1.764;2023-06-14T15:58:33;32.30;43.60
35305;DHT22;26433;48.034;-1.764;2023-06-14T16:03:37;32.20;43.70
35305;DHT22;26433;48.034;-1.764;2023-06-14T16:08:41;31.90;44.20
35305;DHT22;26433;48.034;-1.764;2023-06-14T16:13:46;31.70;44.30
35305;DHT22;26433;48.034;-1.764;2023-06-14T16:18:50;31.50;44.90
35305;DHT22;26433;48.034;-1.764;2023-06-14T16:23:53;31.40;44.80
35305;DHT22;26433;48.034;-1.764;2023-06-14T16:28:59;29.80;44.00
35305;DHT22;26433;48.034;-1.764;2023-06-14T16:34:02;31.20;45.20
35305;DHT22;26433;48.034;-1.764;2023-06-14T16:39:10;31.10;45.50
35305;DHT22;26433;48.034;-1.764;2023-06-14T16:44:15;30.90;45.60
35305;DHT22;26433;48.034;-1.764;2023-06-14T16:49:21;30.80;45.80
35305;DHT22;26433;48.034;-1.764;2023-06-14T16:54:25;30.70;46.10
35305;DHT22;26433;48.034;-1.764;2023-06-14T16:59:30;30.60;46.30
35305;DHT22;26433;48.034;-1.764;2023-06-14T17:04:34;30.50;46.50
35305;DHT22;26433;48.034;-1.764;2023-06-14T17:09:37;30.40;46.80
35305;DHT22;26433;48.034;-1.764;2023-06-14T17:14:45;30.20;46.90
35305;DHT22;26433;48.034;-1.764;2023-06-14T17:19:51;30.10;47.10
35305;DHT22;26433;48.034;-1.764;2023-06-14T17:24:55;30.00;47.60
35305;DHT22;26433;48.034;-1.764;2023-06-14T17:30:00;29.90;47.40
35305;DHT22;26433;48.034;-1.764;2023-06-14T17:35:04;29.80;47.60
35305;DHT22;26433;48.034;-1.764;2023-06-14T17:40:09;29.70;47.50
35305;DHT22;26433;48.034;-1.764;2023-06-14T17:45:14;29.60;47.90
35305;DHT22;26433;48.034;-1.764;2023-06-14T17:50:18;29.50;48.50
35305;DHT22;26433;48.034;-1.764;2023-06-14T17:55:22;29.40;48.50
35305;DHT22;26433;48.034;-1.764;2023-06-14T18:00:27;29.30;48.90
35305;DHT22;26433;48.034;-1.764;2023-06-14T18:05:31;29.20;48.80
35305;DHT22;26433;48.034;-1.764;2023-06-14T18:10:36;29.10;48.90
35305;DHT22;26433;48.034;-1.764;2023-06-14T18:15:41;29.00;49.00
35305;DHT22;26433;48.034;-1.764;2023-06-14T18:20:45;28.80;49.40
35305;DHT22;26433;48.034;-1.764;2023-06-14T18:25:48;28.80;49.90
35305;DHT22;26433;48.034;-1.764;2023-06-14T18:30:54;28.70;50.00
35305;DHT22;26433;48.034;-1.764;2023-06-14T18:35:57;28.50;50.20
35305;DHT22;26433;48.034;-1.764;2023-06-14T18:41:01;28.40;50.60
35305;DHT22;26433;48.034;-1.764;2023-06-14T18:46:06;28.40;50.90
35305;DHT22;26433;48.034;-1.764;2023-06-14T18:51:10;28.20;51.40
35305;DHT22;26433;48.034;-1.764;2023-06-14T18:56:13;28.20;51.50
35305;DHT22;26433;48.034;-1.764;2023-06-14T19:01:18;28.00;51.80
35305;DHT22;26433;48.034;-1.764;2023-06-14T19:06:22;27.80;52.40
35305;DHT22;26433;48.034;-1.764;2023-06-14T19:11:27;27.30;53.10
35305;DHT22;26433;48.034;-1.764;2023-06-14T19:16:33;26.90;53.60
35305;DHT22;26433;48.034;-1.764;2023-06-14T19:21:36;26.80;54.00
35305;DHT22;26433;48.034;-1.764;2023-06-14T19:26:40;26.70;54.20
35305;DHT22;26433;48.034;-1.764;2023-06-14T19:31:45;26.50;54.40
35305;DHT22;26433;48.034;-1.764;2023-06-14T19:36:49;26.30;54.70
35305;DHT22;26433;48.034;-1.764;2023-06-14T19:41:53;26.20;54.80
35305;DHT22;26433;48.034;-1.764;2023-06-14T19:46:58;26.10;55.20
35305;DHT22;26433;48.034;-1.764;2023-06-14T19:52:02;26.00;55.30
35305;DHT22;26433;48.034;-1.764;2023-06-14T19:57:06;25.90;55.50
35305;DHT22;26433;48.034;-1.764;2023-06-14T20:02:11;25.70;56.20
35305;DHT22;26433;48.034;-1.764;2023-06-14T20:07:15;25.60;56.30
35305;DHT22;26433;48.034;-1.764;2023-06-14T20:12:19;25.50;56.50
35305;DHT22;26433;48.034;-1.764;2023-06-14T20:17:24;25.40;56.70
35305;DHT22;26433;48.034;-1.764;2023-06-14T20:22:27;25.30;56.70
35305;DHT22;26433;48.034;-1.764;2023-06-14T20:27:31;25.20;56.90
35305;DHT22;26433;48.034;-1.764;2023-06-14T20:32:37;25.10;57.20
35305;DHT22;26433;48.034;-1.764;2023-06-14T20:37:41;25.00;57.30
35305;DHT22;26433;48.034;-1.764;2023-06-14T20:42:44;24.90;57.50
35305;DHT22;26433;48.034;-1.764;2023-06-14T20:47:49;24.70;57.60
35305;DHT22;26433;48.034;-1.764;2023-06-14T20:52:54;24.70;57.90
35305;DHT22;26433;48.034;-1.764;2023-06-14T20:57:57;24.60;58.00
35305;DHT22;26433;48.034;-1.764;2023-06-14T21:03:03;24.50;58.00
35305;DHT22;26433;48.034;-1.764;2023-06-14T21:08:07;24.50;58.00
35305;DHT22;26433;48.034;-1.764;2023-06-14T21:13:10;24.40;58.10
35305;DHT22;26433;48.034;-1.764;2023-06-14T21:18:17;24.20;58.40
35305;DHT22;26433;48.034;-1.764;2023-06-14T21:23:21;24.10;58.70
35305;DHT22;26433;48.034;-1.764;2023-06-14T21:28:24;23.90;58.80
35305;DHT22;26433;48.034;-1.764;2023-06-14T21:33:29;23.90;58.90
35305;DHT22;26433;48.034;-1.764;2023-06-14T21:38:33;23.80;59.20
35305;DHT22;26433;48.034;-1.764;2023-06-14T21:43:36;23.80;59.30
35305;DHT22;26433;48.034;-1.764;2023-06-14T21:48:41;23.70;59.30
35305;DHT22;26433;48.034;-1.764;2023-06-14T21:53:45;23.70;59.40
35305;DHT22;26433;48.034;-1.764;2023-06-14T21:58:51;23.60;59.50
35305;DHT22;26433;48.034;-1.764;2023-06-14T22:03:56;23.50;59.70
35305;DHT22;26433;48.034;-1.764;2023-06-14T22:09:00;23.40;59.80
35305;DHT22;26433;48.034;-1.764;2023-06-14T22:14:05;23.30;60.00
35305;DHT22;26433;48.034;-1.764;2023-06-14T22:19:12;23.20;60.20
35305;DHT22;26433;48.034;-1.764;2023-06-14T22:24:17;23.20;60.30
35305;DHT22;26433;48.034;-1.764;2023-06-14T22:29:21;23.10;60.20
35305;DHT22;26433;48.034;-1.764;2023-06-14T22:34:27;23.00;60.40
35305;DHT22;26433;48.034;-1.764;2023-06-14T22:39:31;22.90;60.70
35305;DHT22;26433;48.034;-1.764;2023-06-14T22:44:35;22.80;60.70
35305;DHT22;26433;48.034;-1.764;2023-06-14T22:49:40;22.70;61.10
35305;DHT22;26433;48.034;-1.764;2023-06-14T22:54:48;22.60;61.40
35305;DHT22;26433;48.034;-1.764;2023-06-14T22:59:52;22.70;62.70
35305;DHT22;26433;48.034;-1.764;2023-06-14T23:04:57;22.50;62.00
35305;DHT22;26433;48.034;-1.764;2023-06-14T23:10:01;22.40;62.10
35305;DHT22;26433;48.034;-1.764;2023-06-14T23:15:05;22.30;62.30
35305;DHT22;26433;48.034;-1.764;2023-06-14T23:20:12;22.30;62.40
35305;DHT22;26433;48.034;-1.764;2023-06-14T23:25:15;22.20;62.80
35305;DHT22;26433;48.034;-1.764;2023-06-14T23:30:19;22.10;63.00
35305;DHT22;26433;48.034;-1.764;2023-06-14T23:35:24;22.00;63.10
35305;DHT22;26433;48.034;-1.764;2023-06-14T23:40:28;22.00;63.30
35305;DHT22;26433;48.034;-1.764;2023-06-14T23:45:32;21.90;63.50
35305;DHT22;26433;48.034;-1.764;2023-06-14T23:50:38;21.80;63.70
35305;DHT22;26433;48.034;-1.764;2023-06-14T23:55:42;21.70;63.80
